KAD weather

Kaduna Airport
Kaduna, Kaduna, Nigeria

Public forecast

Using degrees Celsius for public forecast. Weather courtesy of forecast.io.

Current aviation weather report (METAR) for Kaduna Airport

Report is more than 6 hours old.

Retrieved 2019/10/09 07:00 UTC (15 days ago):

DNKA 090700Z 25004KT CAVOK 24/21 Q1015 NOSIG

Aviation forecast (TAF) for Kaduna Airport

Forecast is more than 6 hours old.

Retrieved 2019/10/23 18:21 UTC (7 hours ago):

TAF DNKA 231700Z 2318/2424 24005KT 9999 FEW010 PROB30 TEMPO 2319/2322 TS FEW020CB